createdAt,value
2024-03-02T00:01:25.675Z,99754.06
2024-03-02T00:03:52.753Z,99755.22
2024-03-02T00:06:25.006Z,99756.56
2024-03-02T00:08:51.990Z,99755.22
2024-03-02T00:11:19.356Z,99744.03
2024-03-02T00:13:46.240Z,99738.41
2024-03-02T00:16:12.661Z,99746.03
2024-03-02T00:18:39.674Z,99746.69
2024-03-02T00:21:11.865Z,99741.22
2024-03-02T00:23:39.613Z,99741.59
2024-03-02T00:26:06.629Z,99745.56
2024-03-02T00:28:36.395Z,99752.09
2024-03-02T00:31:05.218Z,99738.09
2024-03-02T00:33:34.527Z,99738.78
2024-03-02T00:36:02.259Z,99738.25
2024-03-02T00:38:29.667Z,99731.09
2024-03-02T00:40:57.759Z,99731.94
2024-03-02T00:43:57.982Z,99727.31
2024-03-02T00:46:25.164Z,99725.31
2024-03-02T00:48:58.386Z,99724.47
2024-03-02T00:51:27.472Z,99728.28
2024-03-02T00:53:58.347Z,99718.81
2024-03-02T00:56:25.839Z,99714.31
2024-03-02T00:58:53.168Z,99715.31
2024-03-02T01:01:20.815Z,99707.66
2024-03-02T01:03:47.543Z,99714.34
2024-03-02T01:06:14.130Z,99718.41
2024-03-02T01:08:40.616Z,99720.28
2024-03-02T01:11:07.187Z,99723.31
2024-03-02T01:13:34.234Z,99724.97
2024-03-02T01:16:01.065Z,99719.50
2024-03-02T01:18:27.737Z,99717.34
2024-03-02T01:20:56.217Z,99711.53
2024-03-02T01:23:23.774Z,99716.72
2024-03-02T01:25:51.793Z,99715.56
2024-03-02T01:28:19.592Z,99721.09
2024-03-02T01:30:46.070Z,99717.09
2024-03-02T01:33:12.555Z,99712.63
2024-03-02T01:35:39.013Z,99714.97
2024-03-02T01:38:08.653Z,99716.16
2024-03-02T01:40:35.559Z,99708.50
2024-03-02T01:43:03.410Z,99702.34
2024-03-02T01:45:30.264Z,99704.03
2024-03-02T01:47:57.141Z,99700.34
2024-03-02T01:50:32.036Z,99706.69
2024-03-02T01:52:59.008Z,99689.69
2024-03-02T01:55:26.433Z,99702.84
2024-03-02T01:57:53.520Z,99690.19
2024-03-02T02:00:21.202Z,99694.34
2024-03-02T02:02:51.722Z,99695.19
2024-03-02T02:05:18.640Z,99708.53
2024-03-02T02:07:45.165Z,99696.19
2024-03-02T02:10:12.047Z,99694.69
2024-03-02T02:12:39.518Z,99684.88
2024-03-02T02:15:23.386Z,99693.88
2024-03-02T02:17:49.873Z,99689.03
2024-03-02T02:20:16.369Z,99694.69
2024-03-02T02:22:56.721Z,99689.03
2024-03-02T02:25:23.129Z,99693.66
2024-03-02T02:27:49.570Z,99703.00
2024-03-02T02:30:20.812Z,99697.38
2024-03-02T02:32:47.300Z,99702.19
2024-03-02T02:35:13.876Z,99701.38
2024-03-02T02:37:40.423Z,99699.19
2024-03-02T02:40:07.356Z,99705.84
2024-03-02T02:42:33.736Z,99692.34
2024-03-02T02:45:00.181Z,99695.69
2024-03-02T02:47:27.322Z,99686.69
2024-03-02T02:49:53.837Z,99684.03
2024-03-02T02:52:21.329Z,99689.38
2024-03-02T02:54:47.869Z,99689.53
2024-03-02T02:57:14.404Z,99684.03
2024-03-02T02:59:40.794Z,99677.03
2024-03-02T03:02:07.533Z,99679.19
2024-03-02T03:04:33.914Z,99689.69
2024-03-02T03:07:00.339Z,99683.00
2024-03-02T03:09:26.821Z,99673.38
2024-03-02T03:11:53.209Z,99672.19
2024-03-02T03:14:19.707Z,99673.53
2024-03-02T03:16:47.394Z,99678.88
2024-03-02T03:19:13.773Z,99668.03
2024-03-02T03:21:40.216Z,99674.84
2024-03-02T03:24:06.679Z,99674.03
2024-03-02T03:26:33.051Z,99685.88
2024-03-02T03:28:59.714Z,99688.38
2024-03-02T03:31:26.088Z,99688.69
2024-03-02T03:33:52.554Z,99683.19
2024-03-02T03:36:18.981Z,99685.72
2024-03-02T03:38:45.365Z,99687.84
2024-03-02T03:41:11.937Z,99680.38
2024-03-02T03:43:38.514Z,99690.00
2024-03-02T03:46:05.047Z,99695.84
2024-03-02T03:48:31.963Z,99696.19
2024-03-02T03:50:58.585Z,99702.00
2024-03-02T03:53:25.365Z,99700.19
2024-03-02T03:55:51.751Z,99698.84
2024-03-02T03:58:22.729Z,99700.88
2024-03-02T04:00:49.587Z,99700.69
2024-03-02T04:03:16.132Z,99701.03
2024-03-02T04:05:42.540Z,99700.69
2024-03-02T04:08:08.896Z,99699.53
2024-03-02T04:10:35.342Z,99707.53
2024-03-02T04:13:01.800Z,99704.03
2024-03-02T04:15:28.238Z,99694.50
2024-03-02T04:17:54.795Z,99702.50
2024-03-02T04:20:21.366Z,99698.00
2024-03-02T04:22:48.121Z,99705.66
2024-03-02T04:25:14.617Z,99700.69
2024-03-02T04:27:42.186Z,99695.50
2024-03-02T04:30:09.205Z,99714.34
2024-03-02T04:32:37.164Z,99707.31
2024-03-02T04:35:03.774Z,99711.97
2024-03-02T04:37:30.165Z,99705.31
2024-03-02T04:39:56.692Z,99711.81
2024-03-02T04:42:23.658Z,99718.63
2024-03-02T04:44:50.029Z,99718.97
2024-03-02T04:47:16.521Z,99727.94
2024-03-02T04:49:42.970Z,99712.47
2024-03-02T04:52:09.402Z,99715.44
2024-03-02T04:54:56.025Z,99709.94
2024-03-02T04:57:22.539Z,99703.28
2024-03-02T04:59:49.276Z,99717.25
2024-03-02T05:02:16.120Z,99724.91
2024-03-02T05:04:42.941Z,99737.69
2024-03-02T05:07:09.442Z,99737.56
2024-03-02T05:09:35.875Z,99737.88
2024-03-02T05:12:30.254Z,99732.38
2024-03-02T05:14:57.109Z,99734.66
2024-03-02T05:17:23.576Z,99716.19
2024-03-02T05:19:50.306Z,99708.84
2024-03-02T05:22:17.682Z,99720.66
2024-03-02T05:24:44.097Z,99716.16
2024-03-02T05:27:10.511Z,99718.47
2024-03-02T05:29:37.083Z,99730.63
2024-03-02T05:32:03.555Z,99738.56
2024-03-02T05:34:31.626Z,99748.84
2024-03-02T05:36:58.896Z,99732.19
2024-03-02T05:39:25.318Z,99730.66
2024-03-02T05:41:51.698Z,99726.66
2024-03-02T05:44:19.333Z,99733.09
2024-03-02T05:46:45.956Z,99734.22
2024-03-02T05:49:12.548Z,99729.56
2024-03-02T05:51:39.014Z,99739.13
2024-03-02T05:54:05.532Z,99747.94
2024-03-02T05:56:32.198Z,99740.28
2024-03-02T05:59:14.049Z,99743.66
2024-03-02T06:01:41.711Z,99747.75
2024-03-02T06:04:08.078Z,99748.88
2024-03-02T06:06:34.998Z,99743.22
2024-03-02T06:09:13.518Z,99745.50
2024-03-02T06:11:41.396Z,99742.63
2024-03-02T06:14:09.367Z,99749.25
2024-03-02T06:16:36.176Z,99747.22
2024-03-02T06:19:02.928Z,99747.69
2024-03-02T06:21:29.508Z,99758.75
2024-03-02T06:23:56.028Z,99765.44
2024-03-02T06:26:25.823Z,99769.25
2024-03-02T06:28:52.897Z,99769.53
2024-03-02T06:31:19.349Z,99772.66
2024-03-02T06:33:45.746Z,99781.06
2024-03-02T06:36:12.909Z,99784.19
2024-03-02T06:38:43.197Z,99780.56
2024-03-02T06:41:09.954Z,99795.59
2024-03-02T06:43:36.689Z,99793.25
2024-03-02T06:46:03.642Z,99795.59
2024-03-02T06:48:31.048Z,99793.91
2024-03-02T06:50:58.419Z,99798.56
2024-03-02T06:53:24.805Z,99791.56
2024-03-02T06:55:51.203Z,99793.38
2024-03-02T06:58:17.588Z,99796.03
2024-03-02T07:00:45.080Z,99803.34
2024-03-02T07:03:11.635Z,99800.25
2024-03-02T07:05:38.078Z,99809.19
2024-03-02T07:08:06.168Z,99812.16
2024-03-02T07:10:32.692Z,99813.53
2024-03-02T07:12:59.073Z,99819.06
2024-03-02T07:15:28.403Z,99805.63
2024-03-02T07:17:54.935Z,99811.59
2024-03-02T07:20:21.635Z,99820.66
2024-03-02T07:22:48.227Z,99811.91
2024-03-02T07:27:45.021Z,99811.97
2024-03-02T07:30:15.019Z,99816.41
2024-03-02T07:32:42.820Z,99816.66
2024-03-02T07:35:09.358Z,99818.56
2024-03-02T07:37:35.758Z,99813.16
2024-03-02T07:40:02.388Z,99819.75
2024-03-02T07:42:29.194Z,99815.44
2024-03-02T07:44:55.693Z,99822.81
2024-03-02T07:47:22.138Z,99824.31
2024-03-02T07:49:48.636Z,99823.38
2024-03-02T07:52:15.596Z,99829.22
2024-03-02T07:54:41.973Z,99835.09
2024-03-02T07:57:09.526Z,99824.94
2024-03-02T07:59:35.939Z,99839.47
2024-03-02T08:02:02.659Z,99826.13
2024-03-02T08:04:29.210Z,99830.09
2024-03-02T08:06:56.025Z,99825.31
2024-03-02T08:09:22.935Z,99830.31
2024-03-02T08:11:49.537Z,99834.50
2024-03-02T08:14:15.982Z,99854.69
2024-03-02T08:16:42.549Z,99855.38
2024-03-02T08:19:09.998Z,99855.38
2024-03-02T08:21:36.836Z,99858.06
2024-03-02T08:24:03.861Z,99863.06
2024-03-02T08:26:32.528Z,99860.88
2024-03-02T08:29:00.031Z,99868.06
2024-03-02T08:31:26.386Z,99862.41
2024-03-02T08:33:52.830Z,99874.41
2024-03-02T08:36:20.326Z,99870.06
2024-03-02T08:38:47.049Z,99874.38
2024-03-02T08:41:14.761Z,99860.19
2024-03-02T08:43:42.248Z,99863.19
2024-03-02T08:46:08.844Z,99864.50
2024-03-02T08:48:35.609Z,99858.63
2024-03-02T08:51:02.146Z,99864.09
2024-03-02T08:53:28.504Z,99860.22
2024-03-02T08:55:57.383Z,99866.03
2024-03-02T08:58:25.509Z,99864.94
2024-03-02T09:00:52.131Z,99864.00
2024-03-02T09:03:18.807Z,99860.13
2024-03-02T09:05:45.897Z,99866.78
2024-03-02T09:08:12.298Z,99864.94
2024-03-02T09:10:40.600Z,99866.88
2024-03-02T09:13:07.292Z,99860.53
2024-03-02T09:15:37.011Z,99869.78
2024-03-02T09:18:04.976Z,99876.34
2024-03-02T09:20:31.393Z,99875.00
2024-03-02T09:22:57.769Z,99876.88
2024-03-02T09:25:24.168Z,99873.09
2024-03-02T09:27:50.541Z,99873.34
2024-03-02T09:30:16.999Z,99869.41
2024-03-02T09:32:44.360Z,99876.72
2024-03-02T09:35:12.967Z,99886.53
2024-03-02T09:37:39.338Z,99871.91
2024-03-02T09:40:07.282Z,99879.13
2024-03-02T09:42:33.809Z,99872.81
2024-03-02T09:45:00.383Z,99864.31
2024-03-02T09:47:26.839Z,99869.31
2024-03-02T09:49:53.457Z,99873.56
2024-03-02T09:52:19.964Z,99873.75
2024-03-02T09:54:48.996Z,99868.31
2024-03-02T09:57:15.969Z,99874.88
2024-03-02T09:59:42.364Z,99868.41
2024-03-02T10:02:08.859Z,99859.69
2024-03-02T10:04:37.097Z,99882.06
2024-03-02T10:07:17.657Z,99865.25
2024-03-02T10:09:46.654Z,99866.44
2024-03-02T10:12:17.270Z,99861.72
2024-03-02T10:14:44.723Z,99868.09
2024-03-02T10:17:12.822Z,99859.19
2024-03-02T10:19:40.407Z,99859.44
2024-03-02T10:22:09.353Z,99861.91
2024-03-02T10:24:39.072Z,99853.09
2024-03-02T10:27:10.229Z,99857.66
2024-03-02T10:29:41.559Z,99849.03
2024-03-02T10:32:12.527Z,99859.91
2024-03-02T10:34:41.496Z,99856.19
2024-03-02T10:37:08.947Z,99854.00
2024-03-02T10:39:36.793Z,99843.34
2024-03-02T10:42:04.604Z,99849.53
2024-03-02T10:44:31.979Z,99853.16
2024-03-02T10:47:04.606Z,99855.09
2024-03-02T10:49:32.436Z,99850.94
2024-03-02T10:52:02.283Z,99852.59
2024-03-02T10:54:36.840Z,99845.06
2024-03-02T10:57:06.239Z,99845.31
2024-03-02T10:59:37.907Z,99846.22
2024-03-02T11:02:06.536Z,99838.00
2024-03-02T11:04:35.774Z,99841.16
2024-03-02T11:07:11.410Z,99837.00
2024-03-02T11:10:00.898Z,99827.56
2024-03-02T11:12:32.810Z,99837.84
2024-03-02T11:14:59.566Z,99844.78
2024-03-02T11:17:27.210Z,99835.94
2024-03-02T11:19:53.865Z,99835.69
2024-03-02T11:22:20.752Z,99836.56
2024-03-02T11:24:52.316Z,99833.47
2024-03-02T11:27:47.217Z,99836.88
2024-03-02T11:30:32.677Z,99823.75
2024-03-02T11:33:00.215Z,99818.75
2024-03-02T11:35:27.316Z,99821.84
2024-03-02T11:37:54.122Z,99809.28
2024-03-02T11:40:23.534Z,99804.09
2024-03-02T11:42:50.226Z,99806.00
2024-03-02T11:45:35.181Z,99811.41
2024-03-02T11:48:01.626Z,99813.91
2024-03-02T11:50:31.681Z,99810.03
2024-03-02T11:52:59.182Z,99797.22
2024-03-02T11:55:30.011Z,99805.56
2024-03-02T11:57:56.981Z,99807.81
2024-03-02T12:00:23.443Z,99802.22
2024-03-02T12:03:06.884Z,99804.25
2024-03-02T12:05:34.408Z,99796.44
2024-03-02T12:08:03.033Z,99800.63
2024-03-02T12:10:30.551Z,99795.41
2024-03-02T12:13:01.080Z,99788.34
2024-03-02T12:15:29.297Z,99782.53
2024-03-02T12:18:01.044Z,99786.06
2024-03-02T12:20:30.030Z,99788.25
2024-03-02T12:22:59.779Z,99785.97
2024-03-02T12:25:27.090Z,99782.81
2024-03-02T12:27:57.868Z,99783.22
2024-03-02T12:30:24.915Z,99784.84
2024-03-02T12:32:51.893Z,99785.66
2024-03-02T12:35:19.451Z,99776.44
2024-03-02T12:37:47.745Z,99769.53
2024-03-02T12:40:15.488Z,99771.13
2024-03-02T12:42:43.087Z,99771.13
2024-03-02T12:45:10.292Z,99766.84
2024-03-02T12:47:37.432Z,99762.97
2024-03-02T12:50:05.313Z,99764.94
2024-03-02T12:52:33.404Z,99757.53
2024-03-02T12:55:05.464Z,99759.22
2024-03-02T12:57:34.181Z,99756.31
2024-03-02T13:00:09.991Z,99757.50
2024-03-02T13:02:37.650Z,99747.97
2024-03-02T13:05:04.586Z,99748.56
2024-03-02T13:07:31.154Z,99747.72
2024-03-02T13:09:58.053Z,99744.88
2024-03-02T13:12:25.705Z,99744.69
2024-03-02T13:14:55.628Z,99743.97
2024-03-02T13:17:22.852Z,99750.25
2024-03-02T13:19:53.872Z,99751.50
2024-03-02T13:22:20.969Z,99743.34
2024-03-02T13:24:47.351Z,99741.28
2024-03-02T13:27:13.933Z,99748.31
2024-03-02T13:29:40.387Z,99739.81
2024-03-02T13:32:07.000Z,99739.38
2024-03-02T13:34:33.408Z,99736.22
2024-03-02T13:37:02.367Z,99734.78
2024-03-02T13:39:31.799Z,99726.13
2024-03-02T13:42:05.279Z,99730.66
2024-03-02T13:44:31.953Z,99718.44
2024-03-02T13:47:00.369Z,99716.34
2024-03-02T13:49:35.093Z,99713.69
2024-03-02T13:52:05.927Z,99719.47
2024-03-02T13:54:32.892Z,99717.38
2024-03-02T13:56:59.570Z,99729.28
2024-03-02T13:59:26.197Z,99725.97
2024-03-02T14:01:52.668Z,99722.88
2024-03-02T14:04:19.136Z,99734.25
2024-03-02T14:06:45.565Z,99725.59
2024-03-02T14:09:11.924Z,99724.78
2024-03-02T14:11:38.410Z,99724.00
2024-03-02T14:14:04.776Z,99716.13
2024-03-02T14:16:31.158Z,99716.72
2024-03-02T14:18:57.963Z,99716.53
2024-03-02T14:21:24.402Z,99717.13
2024-03-02T14:23:51.029Z,99706.78
2024-03-02T14:26:17.541Z,99706.16
2024-03-02T14:28:49.945Z,99706.97
2024-03-02T14:31:18.563Z,99697.41
2024-03-02T14:33:45.045Z,99699.09
2024-03-02T14:36:11.597Z,99698.91
2024-03-02T14:38:38.970Z,99695.41
2024-03-02T14:41:05.759Z,99696.28
2024-03-02T14:43:32.250Z,99693.84
2024-03-02T14:46:00.349Z,99692.09
2024-03-02T14:48:27.033Z,99685.09
2024-03-02T14:50:53.455Z,99687.41
2024-03-02T14:53:20.243Z,99684.53
2024-03-02T14:55:47.075Z,99683.94
2024-03-02T14:58:13.454Z,99681.66
2024-03-02T15:00:39.924Z,99677.72
2024-03-02T15:03:09.439Z,99682.69
2024-03-02T15:05:36.492Z,99679.16
2024-03-02T15:08:05.368Z,99671.50
2024-03-02T15:10:32.205Z,99672.09
2024-03-02T15:12:59.505Z,99675.63
2024-03-02T15:15:26.544Z,99670.03
2024-03-02T15:17:53.538Z,99666.88
2024-03-02T15:20:22.163Z,99673.31
2024-03-02T15:22:48.528Z,99675.34
2024-03-02T15:25:17.090Z,99671.19
2024-03-02T15:27:44.111Z,99673.41
2024-03-02T15:30:10.737Z,99670.69
2024-03-02T15:32:37.929Z,99669.44
2024-03-02T15:35:04.892Z,99672.72
2024-03-02T15:37:31.546Z,99667.75
2024-03-02T15:39:58.123Z,99668.56
2024-03-02T15:42:24.645Z,99672.28
2024-03-02T15:44:51.526Z,99664.16
2024-03-02T15:47:17.972Z,99665.63
2024-03-02T15:49:44.391Z,99671.19
2024-03-02T15:52:10.861Z,99658.53
2024-03-02T15:54:37.384Z,99671.09
2024-03-02T15:57:04.062Z,99658.00
2024-03-02T15:59:30.520Z,99661.72
2024-03-02T16:01:58.752Z,99662.13
2024-03-02T16:04:25.223Z,99660.22
2024-03-02T16:06:51.708Z,99662.47
2024-03-02T16:09:18.131Z,99666.81
2024-03-02T16:11:44.488Z,99662.47
2024-03-02T16:14:10.895Z,99664.31
2024-03-02T16:16:37.391Z,99657.88
2024-03-02T16:19:08.576Z,99662.22
2024-03-02T16:21:40.728Z,99659.53
2024-03-02T16:24:07.165Z,99664.66
2024-03-02T16:26:34.053Z,99659.09
2024-03-02T16:29:00.468Z,99660.34
2024-03-02T16:31:26.994Z,99655.56
2024-03-02T16:33:53.852Z,99662.94
2024-03-02T16:36:21.518Z,99661.09
2024-03-02T16:38:48.810Z,99663.97
2024-03-02T16:41:17.500Z,99661.50
2024-03-02T16:43:46.219Z,99662.53
2024-03-02T16:46:12.713Z,99663.97
2024-03-02T16:48:39.149Z,99659.84
2024-03-02T16:51:05.632Z,99661.44
2024-03-02T16:53:32.013Z,99669.50
2024-03-02T16:56:02.214Z,99664.69
2024-03-02T16:58:28.644Z,99663.25
2024-03-02T17:00:55.124Z,99665.50
2024-03-02T17:03:21.515Z,99670.03
2024-03-02T17:05:47.950Z,99668.06
2024-03-02T17:08:14.700Z,99669.00
2024-03-02T17:10:41.373Z,99671.16
2024-03-02T17:13:07.868Z,99676.91
2024-03-02T17:15:34.321Z,99674.81
2024-03-02T17:18:00.910Z,99680.34
2024-03-02T17:20:27.680Z,99681.41
2024-03-02T17:22:54.049Z,99673.91
2024-03-02T17:25:20.449Z,99687.69
2024-03-02T17:27:46.888Z,99686.63
2024-03-02T17:30:14.706Z,99691.59
2024-03-02T17:32:41.666Z,99689.22
2024-03-02T17:35:08.165Z,99698.50
2024-03-02T17:37:35.313Z,99691.53
2024-03-02T17:40:01.846Z,99692.13
2024-03-02T17:42:29.975Z,99694.97
2024-03-02T17:44:56.531Z,99703.59
2024-03-02T17:47:22.958Z,99707.13
2024-03-02T17:49:50.581Z,99704.59
2024-03-02T17:52:17.044Z,99704.81
2024-03-02T17:54:43.473Z,99715.91
2024-03-02T17:57:10.113Z,99713.44
2024-03-02T17:59:38.431Z,99713.22
2024-03-02T18:02:05.211Z,99720.53
2024-03-02T18:04:31.624Z,99720.44
2024-03-02T18:06:59.525Z,99715.63
2024-03-02T18:09:26.164Z,99724.97
2024-03-02T18:11:52.571Z,99723.69
2024-03-02T18:14:19.073Z,99717.56
2024-03-02T18:16:45.432Z,99713.03
2024-03-02T18:19:11.849Z,99711.19
2024-03-02T18:21:38.661Z,99718.22
2024-03-02T18:24:06.252Z,99714.50
2024-03-02T18:26:34.089Z,99714.72
2024-03-02T18:29:00.696Z,99718.59
2024-03-02T18:31:27.554Z,99717.75
2024-03-02T18:33:54.066Z,99720.06
2024-03-02T18:36:20.520Z,99723.50
2024-03-02T18:38:46.945Z,99713.78
2024-03-02T18:41:13.392Z,99715.72
2024-03-02T18:43:39.773Z,99712.38
2024-03-02T18:46:11.385Z,99719.41
2024-03-02T18:48:37.925Z,99715.47
2024-03-02T18:51:10.159Z,99717.31
2024-03-02T18:53:37.545Z,99714.00
2024-03-02T18:56:05.093Z,99710.22
2024-03-02T18:58:31.654Z,99716.69
2024-03-02T19:00:59.081Z,99712.72
2024-03-02T19:03:25.611Z,99713.06
2024-03-02T19:05:52.024Z,99711.66
2024-03-02T19:08:20.458Z,99710.66
2024-03-02T19:10:47.116Z,99708.53
2024-03-02T19:13:13.710Z,99712.31
2024-03-02T19:15:40.150Z,99711.50
2024-03-02T19:18:06.638Z,99711.88
2024-03-02T19:20:33.054Z,99703.00
2024-03-02T19:22:59.486Z,99711.88
2024-03-02T19:25:25.883Z,99700.88
2024-03-02T19:27:52.330Z,99694.06
2024-03-02T19:30:18.899Z,99700.16
2024-03-02T19:32:45.364Z,99702.09
2024-03-02T19:35:14.624Z,99698.50
2024-03-02T19:37:42.349Z,99696.59
2024-03-02T19:40:10.937Z,99702.69
2024-03-02T19:42:37.738Z,99698.25
2024-03-02T19:45:07.871Z,99701.50
2024-03-02T19:47:34.383Z,99694.09
2024-03-02T19:50:00.863Z,99696.78
2024-03-02T19:52:28.624Z,99689.78
2024-03-02T19:54:55.089Z,99693.00
2024-03-02T19:57:21.577Z,99688.28
2024-03-02T19:59:47.995Z,99696.31
2024-03-02T20:02:15.961Z,99692.63
2024-03-02T20:04:44.766Z,99693.63
2024-03-02T20:07:11.397Z,99690.50
2024-03-02T20:09:38.193Z,99695.22
2024-03-02T20:12:05.789Z,99694.13
2024-03-02T20:14:32.274Z,99681.34
2024-03-02T20:16:58.653Z,99676.38
2024-03-02T20:19:25.100Z,99677.03
2024-03-02T20:21:51.520Z,99674.38
2024-03-02T20:24:17.905Z,99668.16
2024-03-02T20:26:44.322Z,99677.13
2024-03-02T20:29:10.676Z,99676.00
2024-03-02T20:31:38.296Z,99672.50
2024-03-02T20:34:04.762Z,99675.81
2024-03-02T20:36:31.160Z,99658.34
2024-03-02T20:38:57.722Z,99671.31
2024-03-02T20:41:24.088Z,99657.72
2024-03-02T20:43:50.633Z,99661.97
2024-03-02T20:46:17.226Z,99658.84
2024-03-02T20:48:44.711Z,99656.28
2024-03-02T20:51:11.143Z,99658.28
2024-03-02T20:53:37.559Z,99659.69
2024-03-02T20:56:04.595Z,99652.31
2024-03-02T20:58:31.329Z,99652.94
2024-03-02T21:00:57.961Z,99650.63
2024-03-02T21:03:24.529Z,99654.31
2024-03-02T21:05:50.927Z,99654.78
2024-03-02T21:08:17.355Z,99640.38
2024-03-02T21:10:46.218Z,99645.56
2024-03-02T21:13:13.532Z,99641.84
2024-03-02T21:15:39.967Z,99636.03
2024-03-02T21:18:06.461Z,99631.22
2024-03-02T21:20:32.868Z,99641.38
2024-03-02T21:22:59.305Z,99650.34
2024-03-02T21:25:28.248Z,99639.72
2024-03-02T21:27:55.175Z,99646.44
2024-03-02T21:30:21.640Z,99652.75
2024-03-02T21:32:49.631Z,99646.34
2024-03-02T21:35:16.264Z,99654.75
2024-03-02T21:37:44.205Z,99654.47
2024-03-02T21:40:12.366Z,99657.34
2024-03-02T21:42:40.442Z,99647.81
2024-03-02T21:45:07.489Z,99652.34
2024-03-02T21:47:34.611Z,99655.31
2024-03-02T21:50:01.017Z,99652.00
2024-03-02T21:52:27.573Z,99657.69
2024-03-02T21:54:54.030Z,99659.19
2024-03-02T21:57:21.602Z,99649.50
2024-03-02T21:59:48.309Z,99656.97
2024-03-02T22:02:14.742Z,99658.25
2024-03-02T22:04:41.315Z,99657.81
2024-03-02T22:07:07.800Z,99659.56
2024-03-02T22:09:35.177Z,99660.38
2024-03-02T22:12:02.262Z,99653.63
2024-03-02T22:14:28.648Z,99655.72
2024-03-02T22:16:55.110Z,99654.63
2024-03-02T22:19:21.532Z,99654.50
2024-03-02T22:21:47.978Z,99647.88
2024-03-02T22:24:14.802Z,99644.00
2024-03-02T22:26:41.518Z,99654.03
2024-03-02T22:29:07.940Z,99643.78
2024-03-02T22:31:34.321Z,99640.00
2024-03-02T22:34:00.737Z,99645.34
2024-03-02T22:36:27.130Z,99646.53
2024-03-02T22:38:53.498Z,99646.03
2024-03-02T22:41:20.048Z,99641.59
2024-03-02T22:43:46.848Z,99638.47
2024-03-02T22:46:14.705Z,99643.34
2024-03-02T22:48:41.439Z,99651.72
2024-03-02T22:51:08.481Z,99640.53
2024-03-02T22:53:37.318Z,99658.97
2024-03-02T22:56:05.703Z,99651.47
2024-03-02T22:58:32.149Z,99649.97
2024-03-02T23:01:04.466Z,99649.50
2024-03-02T23:03:30.888Z,99653.00
2024-03-02T23:05:57.247Z,99653.91
2024-03-02T23:08:23.633Z,99646.88
2024-03-02T23:10:49.994Z,99648.91
2024-03-02T23:13:16.491Z,99648.09
2024-03-02T23:15:43.138Z,99658.09
2024-03-02T23:18:09.521Z,99666.47
2024-03-02T23:20:35.923Z,99667.78
2024-03-02T23:23:05.502Z,99665.13
2024-03-02T23:25:35.367Z,99668.16
2024-03-02T23:28:02.172Z,99676.50
2024-03-02T23:30:30.233Z,99669.31
2024-03-02T23:32:57.459Z,99667.16
2024-03-02T23:35:24.027Z,99663.34
2024-03-02T23:37:51.882Z,99667.88
2024-03-02T23:40:36.606Z,99671.56
2024-03-02T23:43:04.298Z,99670.41
2024-03-02T23:45:31.154Z,99674.41
2024-03-02T23:47:57.678Z,99678.75
2024-03-02T23:50:24.290Z,99669.91
2024-03-02T23:52:50.732Z,99667.75
2024-03-02T23:55:17.181Z,99668.06
2024-03-02T23:57:43.702Z,99671.38
